Hilly, Louisiana
Current Conditions -  °F | °C
As of 10:55 PM on Friday 31 Oct 2014 (Local Time) from KRSN Reporting Station
Clear Clear  
Wind Chill: 51°   Ceiling: Unl
Heat Index: 51°   Visibility: 10mi
Dew Point: 39°   Wind: 10mph
Humidity: 63%   Direction: 30°NNE
Pressure: 30.35"   Gusts: NA
Location:  32.6988°N, 92.6981°W
Report Text: KRSN 010355Z AUTO 03009KT 10SM CLR 11/04 A3035 RMK AO2 T01070040
Loading
Personal Weather Stations






























Interactive Weather Map
Tropical Storm Tracking
New forecast layout! Learn more

10-Day Weather Forecast

Advertisements
Track Severe Weather on mobile